createdAt,value
2023-03-21T00:00:43.228Z,14.27
2023-03-21T00:03:10.625Z,17.37
2023-03-21T00:05:51.958Z,14.43
2023-03-21T00:08:19.712Z,14.93
2023-03-21T00:10:47.246Z,14.90
2023-03-21T00:13:15.825Z,15.47
2023-03-21T00:16:05.991Z,17.00
2023-03-21T00:18:42.076Z,15.53
2023-03-21T00:23:59.991Z,15.67
2023-03-21T00:26:27.476Z,16.07
2023-03-21T00:28:54.844Z,16.83
2023-03-21T00:31:22.199Z,16.70
2023-03-21T00:33:50.377Z,16.83
2023-03-21T00:36:17.870Z,17.00
2023-03-21T00:38:46.001Z,18.00
2023-03-21T00:41:26.222Z,18.73
2023-03-21T00:44:04.067Z,18.63
2023-03-21T00:46:42.777Z,18.93
2023-03-21T00:49:14.415Z,17.47
2023-03-21T00:51:43.593Z,17.33
2023-03-21T00:54:12.157Z,18.33
2023-03-21T00:56:39.617Z,20.03
2023-03-21T00:59:06.908Z,20.30
2023-03-21T01:01:34.248Z,21.00
2023-03-21T01:04:07.539Z,21.10
2023-03-21T01:06:40.143Z,20.43
2023-03-21T01:09:11.181Z,20.53
2023-03-21T01:11:38.626Z,21.77
2023-03-21T01:14:21.459Z,21.57
2023-03-21T01:16:50.184Z,20.73
2023-03-21T01:19:25.654Z,22.27
2023-03-21T01:21:57.365Z,21.57
2023-03-21T01:24:25.274Z,23.27
2023-03-21T01:26:52.762Z,21.53
2023-03-21T01:29:21.071Z,24.57
2023-03-21T01:31:48.801Z,22.57
2023-03-21T01:34:16.499Z,21.47
2023-03-21T01:36:44.202Z,24.57
2023-03-21T01:39:16.595Z,22.57
2023-03-21T01:41:44.899Z,25.23
2023-03-21T01:44:20.783Z,23.63
2023-03-21T01:47:09.855Z,25.17
2023-03-21T01:49:48.066Z,25.07
2023-03-21T01:52:33.469Z,26.80
2023-03-21T01:55:07.765Z,27.00
2023-03-21T01:58:02.076Z,27.57
2023-03-21T02:00:31.754Z,25.37
2023-03-21T02:03:26.140Z,26.03
2023-03-21T02:06:14.457Z,26.50
2023-03-21T02:08:44.908Z,27.60
2023-03-21T02:11:16.246Z,28.27
2023-03-21T02:13:44.179Z,28.50
2023-03-21T02:16:22.540Z,29.97
2023-03-21T02:18:50.553Z,29.50
2023-03-21T02:21:28.430Z,31.17
2023-03-21T02:24:03.957Z,30.23
2023-03-21T02:27:01.398Z,31.80
2023-03-21T02:29:45.839Z,30.27
2023-03-21T02:32:36.985Z,29.27
2023-03-21T02:35:22.075Z,29.73
2023-03-21T02:38:00.183Z,32.07
2023-03-21T02:40:33.202Z,30.57
2023-03-21T02:43:24.802Z,31.60
2023-03-21T02:45:55.345Z,31.73
2023-03-21T02:48:33.177Z,34.83
2023-03-21T02:51:07.838Z,31.93
2023-03-21T02:53:39.542Z,29.47
2023-03-21T02:56:10.631Z,30.70
2023-03-21T02:58:43.177Z,31.37
2023-03-21T03:01:11.039Z,32.40
2023-03-21T03:03:44.045Z,32.67
2023-03-21T03:06:26.239Z,32.80
2023-03-21T03:09:03.161Z,33.20
2023-03-21T03:11:39.164Z,32.27
2023-03-21T03:14:25.279Z,33.97
2023-03-21T03:16:54.173Z,36.30
2023-03-21T03:19:31.163Z,33.47
2023-03-21T03:22:09.757Z,35.60
2023-03-21T03:24:46.078Z,33.77
2023-03-21T03:27:22.175Z,36.20
2023-03-21T03:29:50.203Z,33.87
2023-03-21T03:32:25.617Z,35.53
2023-03-21T03:34:56.990Z,34.40
2023-03-21T03:37:30.545Z,35.20
2023-03-21T03:40:05.866Z,34.40
2023-03-21T03:42:36.586Z,35.37
2023-03-21T03:45:14.368Z,30.33
2023-03-21T03:47:50.785Z,36.33
2023-03-21T03:50:24.881Z,37.53
2023-03-21T03:52:58.708Z,33.80
2023-03-21T03:55:34.348Z,34.77
2023-03-21T03:58:19.678Z,34.00
2023-03-21T04:00:49.548Z,36.20
2023-03-21T04:03:16.954Z,35.97
2023-03-21T04:05:46.280Z,35.67
2023-03-21T04:08:15.854Z,35.87
2023-03-21T04:10:46.963Z,34.67
2023-03-21T04:13:14.545Z,35.40
2023-03-21T04:15:53.371Z,35.30
2023-03-21T04:18:23.033Z,33.33
2023-03-21T04:20:51.483Z,33.53
2023-03-21T04:23:20.193Z,34.07
2023-03-21T04:25:56.684Z,33.60
2023-03-21T04:28:33.612Z,35.50
2023-03-21T04:32:01.596Z,34.70
2023-03-21T04:34:29.507Z,34.03
2023-03-21T04:37:00.037Z,36.17
2023-03-21T04:39:27.764Z,36.27
2023-03-21T04:41:55.186Z,35.63
2023-03-21T04:44:22.669Z,33.77
2023-03-21T04:46:50.523Z,33.00
2023-03-21T04:49:18.949Z,33.03
2023-03-21T04:51:46.331Z,31.67
2023-03-21T04:54:18.229Z,30.37
2023-03-21T04:56:45.520Z,30.83
2023-03-21T04:59:15.027Z,29.63
2023-03-21T05:01:43.804Z,28.77
2023-03-21T05:04:12.119Z,29.83
2023-03-21T05:06:42.315Z,27.80
2023-03-21T05:09:10.136Z,28.07
2023-03-21T05:11:38.971Z,27.57
2023-03-21T05:14:07.040Z,28.03
2023-03-21T05:16:34.841Z,27.23
2023-03-21T05:19:03.813Z,30.27
2023-03-21T05:21:41.804Z,26.67
2023-03-21T05:24:15.012Z,27.10
2023-03-21T05:26:43.411Z,27.30
2023-03-21T05:29:15.469Z,25.33
2023-03-21T05:31:45.533Z,26.07
2023-03-21T05:34:15.368Z,23.97
2023-03-21T05:36:43.404Z,25.57
2023-03-21T05:39:11.988Z,25.17
2023-03-21T05:41:44.510Z,23.93
2023-03-21T05:44:11.974Z,24.53
2023-03-21T05:46:41.027Z,21.83
2023-03-21T05:49:08.711Z,23.73
2023-03-21T05:51:36.355Z,22.60
2023-03-21T05:54:03.791Z,23.70
2023-03-21T05:56:32.306Z,21.13
2023-03-21T05:59:04.646Z,26.05
2023-03-21T06:01:36.896Z,26.10
2023-03-21T06:04:12.560Z,25.57
2023-03-21T06:06:40.967Z,24.13
2023-03-21T06:09:09.155Z,23.30
2023-03-21T06:11:38.386Z,21.43
2023-03-21T06:14:41.117Z,21.67
2023-03-21T06:17:37.860Z,19.73
2023-03-21T06:20:10.626Z,20.73
2023-03-21T06:22:46.493Z,21.03
2023-03-21T06:25:13.970Z,20.80
2023-03-21T06:27:41.398Z,21.30
2023-03-21T06:30:09.088Z,20.70
2023-03-21T06:32:45.304Z,19.97
2023-03-21T06:35:16.970Z,19.87
2023-03-21T06:37:46.069Z,19.87
2023-03-21T06:40:13.982Z,19.03
2023-03-21T06:42:41.510Z,19.30
2023-03-21T06:45:11.587Z,19.07
2023-03-21T06:47:39.128Z,18.00
2023-03-21T06:50:13.080Z,18.63
2023-03-21T06:52:42.859Z,18.40
2023-03-21T06:55:11.187Z,18.40
2023-03-21T06:57:38.488Z,17.37
2023-03-21T07:00:08.945Z,17.03
2023-03-21T07:02:40.430Z,16.97
2023-03-21T07:05:12.690Z,16.27
2023-03-21T07:07:40.770Z,17.03
2023-03-21T07:10:09.366Z,16.13
2023-03-21T07:12:52.916Z,15.67
2023-03-21T07:15:41.384Z,14.40
2023-03-21T07:18:09.913Z,14.90
2023-03-21T07:20:40.268Z,16.63
2023-03-21T07:23:07.757Z,15.17
2023-03-21T07:25:35.939Z,17.37
2023-03-21T07:28:03.676Z,15.40
2023-03-21T07:30:31.077Z,16.27
2023-03-21T07:32:58.387Z,15.00
2023-03-21T07:35:25.870Z,15.00
2023-03-21T07:37:53.748Z,15.57
2023-03-21T07:40:21.161Z,15.33
2023-03-21T07:42:50.836Z,14.77
2023-03-21T07:45:29.171Z,14.73
2023-03-21T07:47:56.570Z,15.27
2023-03-21T07:50:24.558Z,15.87
2023-03-21T07:52:51.854Z,15.30
2023-03-21T07:55:19.208Z,14.23
2023-03-21T07:57:46.752Z,13.77
2023-03-21T08:00:22.906Z,14.53
2023-03-21T08:02:59.003Z,14.60
2023-03-21T08:05:29.030Z,15.77
2023-03-21T08:07:56.859Z,15.13
2023-03-21T08:10:24.188Z,14.50
2023-03-21T08:12:51.520Z,15.37
2023-03-21T08:15:18.824Z,15.37
2023-03-21T08:17:46.373Z,16.13
2023-03-21T08:20:18.463Z,16.40
2023-03-21T08:22:45.794Z,15.00
2023-03-21T08:25:13.972Z,16.60
2023-03-21T08:27:42.308Z,16.80
2023-03-21T08:30:12.250Z,15.73
2023-03-21T08:32:39.908Z,14.90
2023-03-21T08:35:10.138Z,16.13
2023-03-21T08:37:41.810Z,16.90
2023-03-21T08:40:11.471Z,15.97
2023-03-21T08:42:39.183Z,15.30
2023-03-21T08:45:07.442Z,14.60
2023-03-21T08:47:34.802Z,15.17
2023-03-21T08:50:02.089Z,14.27
2023-03-21T08:52:29.512Z,13.17
2023-03-21T08:54:57.167Z,14.37
2023-03-21T08:57:24.556Z,13.90
2023-03-21T08:59:51.817Z,14.23
2023-03-21T09:02:19.197Z,12.87
2023-03-21T09:04:47.448Z,14.67
2023-03-21T09:07:17.117Z,13.73
2023-03-21T09:09:45.916Z,12.23
2023-03-21T09:12:15.043Z,13.73
2023-03-21T09:14:42.377Z,14.43
2023-03-21T09:17:09.659Z,13.63
2023-03-21T09:19:38.060Z,12.23
2023-03-21T09:22:06.030Z,14.07
2023-03-21T09:24:33.369Z,14.00
2023-03-21T09:27:01.057Z,14.40
2023-03-21T09:29:29.163Z,13.60
2023-03-21T09:31:57.607Z,13.83
2023-03-21T09:34:26.417Z,15.87
2023-03-21T09:36:57.211Z,15.27
2023-03-21T09:39:24.869Z,14.33
2023-03-21T09:41:55.588Z,14.77
2023-03-21T09:44:24.683Z,14.70
2023-03-21T09:47:10.011Z,14.73
2023-03-21T09:49:48.423Z,14.70
2023-03-21T09:52:22.334Z,15.73
2023-03-21T09:54:49.861Z,15.53
2023-03-21T09:57:20.595Z,16.43
2023-03-21T09:59:49.596Z,12.97
2023-03-21T10:02:32.147Z,16.60
2023-03-21T10:05:00.756Z,15.57
2023-03-21T10:07:33.084Z,16.13
2023-03-21T10:10:01.799Z,16.37
2023-03-21T10:12:32.011Z,16.17
2023-03-21T10:15:01.179Z,15.27
2023-03-21T10:17:28.607Z,13.43
2023-03-21T10:20:12.219Z,17.53
2023-03-21T10:22:39.648Z,14.30
2023-03-21T10:25:07.614Z,14.47
2023-03-21T10:27:37.007Z,15.07
2023-03-21T10:30:07.304Z,14.53
2023-03-21T10:32:35.868Z,14.10
2023-03-21T10:35:05.005Z,13.83
2023-03-21T10:37:32.691Z,14.20
2023-03-21T10:40:00.349Z,14.10
2023-03-21T10:42:30.832Z,13.77
2023-03-21T10:44:58.427Z,13.93
2023-03-21T10:47:27.413Z,13.90
2023-03-21T10:50:11.317Z,13.20
2023-03-21T10:52:50.362Z,13.10
2023-03-21T10:55:24.351Z,13.57
2023-03-21T10:58:00.186Z,12.37
2023-03-21T11:00:34.659Z,11.43
2023-03-21T11:03:03.434Z,11.17
2023-03-21T11:05:37.032Z,12.23
2023-03-21T11:08:11.004Z,12.20
2023-03-21T11:10:47.952Z,11.57
2023-03-21T11:13:19.725Z,11.93
2023-03-21T11:15:54.054Z,12.70
2023-03-21T11:18:26.140Z,13.53
2023-03-21T11:21:07.300Z,11.93
2023-03-21T11:23:36.133Z,10.57
2023-03-21T11:26:03.784Z,11.43
2023-03-21T11:28:36.829Z,13.07
2023-03-21T11:31:04.939Z,11.53
2023-03-21T11:33:34.210Z,11.47
2023-03-21T11:36:06.399Z,13.90
2023-03-21T11:38:38.483Z,11.27
2023-03-21T11:41:06.138Z,11.37
2023-03-21T11:43:36.249Z,10.83
2023-03-21T11:46:08.994Z,11.80
2023-03-21T11:48:41.618Z,10.67
2023-03-21T11:51:20.573Z,11.20
2023-03-21T11:53:54.021Z,10.87
2023-03-21T11:56:22.272Z,9.63
2023-03-21T11:59:08.449Z,9.67
2023-03-21T12:01:36.428Z,10.67
2023-03-21T12:04:04.856Z,9.97
2023-03-21T12:06:40.708Z,10.83
2023-03-21T12:09:17.684Z,9.50
2023-03-21T12:11:52.259Z,9.87
2023-03-21T12:14:29.139Z,10.73
2023-03-21T12:16:59.612Z,9.87
2023-03-21T12:19:26.863Z,10.50
2023-03-21T12:21:57.146Z,9.10
2023-03-21T12:24:26.935Z,9.03
2023-03-21T12:27:06.233Z,9.37
2023-03-21T12:29:33.503Z,11.93
2023-03-21T12:32:24.040Z,8.80
2023-03-21T12:35:09.750Z,10.13
2023-03-21T12:37:41.637Z,9.93
2023-03-21T12:40:26.100Z,10.33
2023-03-21T12:42:59.801Z,11.80
2023-03-21T12:45:45.665Z,9.97
2023-03-21T12:48:21.007Z,9.27
2023-03-21T12:50:50.775Z,10.77
2023-03-21T12:53:28.307Z,11.20
2023-03-21T12:55:57.562Z,10.60
2023-03-21T12:58:28.422Z,10.47
2023-03-21T13:00:56.980Z,10.73
2023-03-21T13:03:40.251Z,9.80
2023-03-21T13:06:10.290Z,9.87
2023-03-21T13:08:46.948Z,9.10
2023-03-21T13:11:16.426Z,10.77
2023-03-21T13:13:59.804Z,10.83
2023-03-21T13:16:37.846Z,8.67
2023-03-21T13:19:14.629Z,10.80
2023-03-21T13:21:41.891Z,10.03
2023-03-21T13:24:29.700Z,10.13
2023-03-21T13:27:06.896Z,10.57
2023-03-21T13:29:46.177Z,10.23
2023-03-21T13:32:33.271Z,9.60
2023-03-21T13:35:02.022Z,9.10
2023-03-21T13:37:31.764Z,8.93
2023-03-21T13:40:09.424Z,8.90
2023-03-21T13:42:43.590Z,8.07
2023-03-21T13:45:11.905Z,9.23
2023-03-21T13:47:39.406Z,9.33
2023-03-21T13:50:32.963Z,8.40
2023-03-21T13:53:03.131Z,7.87
2023-03-21T13:55:31.743Z,7.80
2023-03-21T13:57:59.070Z,8.53
2023-03-21T14:00:30.856Z,8.47
2023-03-21T14:03:06.623Z,7.27
2023-03-21T14:05:35.471Z,7.43
2023-03-21T14:08:15.364Z,7.73
2023-03-21T14:10:48.961Z,8.47
2023-03-21T14:13:17.753Z,7.87
2023-03-21T14:15:55.273Z,7.50
2023-03-21T14:18:35.046Z,6.37
2023-03-21T14:21:23.367Z,7.30
2023-03-21T14:23:59.034Z,7.40
2023-03-21T14:26:28.113Z,6.90
2023-03-21T14:28:55.805Z,6.70
2023-03-21T14:31:23.376Z,6.50
2023-03-21T14:33:53.991Z,7.37
2023-03-21T14:36:24.174Z,5.67
2023-03-21T14:39:03.858Z,5.73
2023-03-21T14:41:32.673Z,5.90
2023-03-21T14:44:15.367Z,5.40
2023-03-21T14:46:43.336Z,7.03
2023-03-21T14:49:15.464Z,5.67
2023-03-21T14:51:43.008Z,5.60
2023-03-21T14:54:12.745Z,5.63
2023-03-21T14:56:40.820Z,5.27
2023-03-21T14:59:12.243Z,5.67
2023-03-21T15:01:40.637Z,4.77
2023-03-21T15:04:08.176Z,5.07
2023-03-21T15:06:48.738Z,5.80
2023-03-21T15:09:16.717Z,5.10
2023-03-21T15:11:44.157Z,4.93
2023-03-21T15:14:13.856Z,5.40
2023-03-21T15:16:41.550Z,5.20
2023-03-21T15:19:11.226Z,5.23
2023-03-21T15:21:41.508Z,5.60
2023-03-21T15:24:14.766Z,4.60
2023-03-21T15:26:45.893Z,4.87
2023-03-21T15:29:14.464Z,4.93
2023-03-21T15:31:41.870Z,5.03
2023-03-21T15:34:18.109Z,4.70
2023-03-21T15:36:47.574Z,4.53
2023-03-21T15:39:16.324Z,4.97
2023-03-21T15:41:56.925Z,4.40
2023-03-21T15:44:24.216Z,4.60
2023-03-21T15:46:52.433Z,4.90
2023-03-21T15:49:31.085Z,4.27
2023-03-21T15:52:04.710Z,3.87
2023-03-21T15:54:37.066Z,4.97
2023-03-21T15:57:09.513Z,3.87
2023-03-21T15:59:40.581Z,3.80
2023-03-21T16:02:16.975Z,3.57
2023-03-21T16:05:04.487Z,3.70
2023-03-21T16:07:35.151Z,3.93
2023-03-21T16:10:04.946Z,3.47
2023-03-21T16:12:34.165Z,3.70
2023-03-21T16:15:01.695Z,3.17
2023-03-21T16:17:33.369Z,3.60
2023-03-21T16:20:01.196Z,3.50
2023-03-21T16:22:29.430Z,4.00
2023-03-21T16:24:56.790Z,3.57
2023-03-21T16:27:24.146Z,3.73
2023-03-21T16:29:51.517Z,3.20
2023-03-21T16:32:20.526Z,3.70
2023-03-21T16:34:48.411Z,3.50
2023-03-21T16:37:16.241Z,3.37
2023-03-21T16:39:43.789Z,2.90
2023-03-21T16:42:12.954Z,3.00
2023-03-21T16:44:40.782Z,2.80
2023-03-21T16:47:15.625Z,3.63
2023-03-21T16:49:43.395Z,2.57
2023-03-21T16:52:11.984Z,3.00
2023-03-21T16:54:39.860Z,2.57
2023-03-21T16:57:08.508Z,2.47
2023-03-21T16:59:38.533Z,2.37
2023-03-21T17:02:13.356Z,2.80
2023-03-21T17:04:40.888Z,2.20
2023-03-21T17:07:14.183Z,2.93
2023-03-21T17:09:43.820Z,2.40
2023-03-21T17:12:13.694Z,2.40
2023-03-21T17:14:41.950Z,3.43
2023-03-21T17:17:13.137Z,2.83
2023-03-21T17:19:40.547Z,2.97
2023-03-21T17:22:08.428Z,2.63
2023-03-21T17:24:36.159Z,2.87
2023-03-21T17:27:04.779Z,2.90
2023-03-21T17:29:32.137Z,2.80
2023-03-21T17:31:59.633Z,3.13
2023-03-21T17:34:27.291Z,2.77
2023-03-21T17:36:54.700Z,3.20
2023-03-21T17:39:24.129Z,3.43
2023-03-21T17:41:52.439Z,3.07
2023-03-21T17:44:20.391Z,2.80
2023-03-21T17:46:50.313Z,2.77
2023-03-21T17:49:20.047Z,2.90
2023-03-21T17:51:48.027Z,3.50
2023-03-21T17:54:15.384Z,3.30
2023-03-21T17:56:43.575Z,3.10
2023-03-21T17:59:14.919Z,3.17
2023-03-21T18:01:42.914Z,3.50
2023-03-21T18:04:11.066Z,3.63
2023-03-21T18:06:39.008Z,3.57
2023-03-21T18:09:10.996Z,3.50
2023-03-21T18:11:40.150Z,3.40
2023-03-21T18:14:16.360Z,3.23
2023-03-21T18:16:46.219Z,3.33
2023-03-21T18:19:14.548Z,4.40
2023-03-21T18:21:44.886Z,3.93
2023-03-21T18:24:12.703Z,4.03
2023-03-21T18:26:41.009Z,4.17
2023-03-21T18:30:07.992Z,4.13
2023-03-21T18:32:06.288Z,3.50
2023-03-21T18:34:36.538Z,3.63
2023-03-21T18:37:04.493Z,3.73
2023-03-21T18:39:33.099Z,4.07
2023-03-21T18:42:02.578Z,3.73
2023-03-21T18:44:37.519Z,3.83
2023-03-21T18:47:06.644Z,4.33
2023-03-21T18:52:22.587Z,4.43
2023-03-21T18:54:50.437Z,4.03
2023-03-21T18:57:37.430Z,4.70
2023-03-21T19:00:12.793Z,4.80
2023-03-21T19:02:45.909Z,4.77
2023-03-21T19:05:15.547Z,4.03
2023-03-21T19:07:43.035Z,4.80
2023-03-21T19:10:19.660Z,4.53
2023-03-21T19:12:54.851Z,4.50
2023-03-21T19:15:24.101Z,4.17
2023-03-21T19:18:34.447Z,5.30
2023-03-21T19:20:43.656Z,3.97
2023-03-21T19:23:11.873Z,4.43
2023-03-21T19:25:39.480Z,4.63
2023-03-21T19:28:07.261Z,5.20
2023-03-21T19:30:34.760Z,5.40
2023-03-21T19:33:02.215Z,4.00
2023-03-21T19:35:30.020Z,4.93
2023-03-21T19:37:57.595Z,5.07
2023-03-21T19:40:25.294Z,4.67
2023-03-21T19:42:52.932Z,4.73
2023-03-21T19:45:20.612Z,4.97
2023-03-21T19:47:48.717Z,4.67
2023-03-21T19:53:04.780Z,4.90
2023-03-21T19:55:32.347Z,4.23
2023-03-21T19:57:59.827Z,4.73
2023-03-21T20:00:27.675Z,5.20
2023-03-21T20:02:55.511Z,5.20
2023-03-21T20:05:25.676Z,5.17
2023-03-21T20:07:55.349Z,4.57
2023-03-21T20:10:23.529Z,5.73
2023-03-21T20:12:51.365Z,5.43
2023-03-21T20:15:21.910Z,5.70
2023-03-21T20:17:50.782Z,6.00
2023-03-21T20:20:19.408Z,8.20
2023-03-21T20:23:10.914Z,5.50
2023-03-21T20:25:43.150Z,5.77
2023-03-21T20:28:16.225Z,5.37
2023-03-21T20:30:51.353Z,5.17
2023-03-21T20:33:19.904Z,7.33
2023-03-21T20:38:37.028Z,6.47
2023-03-21T20:41:05.755Z,5.87
2023-03-21T20:44:24.444Z,6.80
2023-03-21T20:46:21.540Z,6.47
2023-03-21T20:48:49.679Z,6.70
2023-03-21T20:52:29.141Z,6.23
2023-03-21T20:54:05.984Z,6.00
2023-03-21T20:56:34.540Z,6.77
2023-03-21T20:59:16.133Z,7.90
2023-03-21T21:01:45.213Z,6.50
2023-03-21T21:04:19.248Z,7.33
2023-03-21T21:06:49.920Z,6.70
2023-03-21T21:09:17.977Z,6.97
2023-03-21T21:14:35.484Z,6.23
2023-03-21T21:17:20.942Z,6.93
2023-03-21T21:19:50.934Z,7.77
2023-03-21T21:22:18.496Z,6.97
2023-03-21T21:24:45.910Z,6.57
2023-03-21T21:27:13.822Z,6.87
2023-03-21T21:29:43.311Z,6.83
2023-03-21T21:32:11.360Z,7.10
2023-03-21T21:34:38.750Z,7.23
2023-03-21T21:37:06.169Z,6.70
2023-03-21T21:39:35.236Z,10.77
2023-03-21T21:42:02.684Z,7.17
2023-03-21T21:44:31.139Z,8.03
2023-03-21T21:46:58.628Z,7.40
2023-03-21T21:49:26.825Z,6.90
2023-03-21T21:51:54.175Z,7.37
2023-03-21T21:54:21.528Z,6.80
2023-03-21T21:56:49.302Z,7.00
2023-03-21T21:59:16.750Z,7.07
2023-03-21T22:01:44.138Z,7.40
2023-03-21T22:04:12.407Z,6.97
2023-03-21T22:06:41.425Z,8.00
2023-03-21T22:09:08.890Z,7.67
2023-03-21T22:11:36.687Z,7.83
2023-03-21T22:14:04.612Z,7.27
2023-03-21T22:16:31.937Z,8.53
2023-03-21T22:18:59.628Z,8.03
2023-03-21T22:21:26.871Z,7.57
2023-03-21T22:23:54.291Z,7.80
2023-03-21T22:26:21.670Z,8.90
2023-03-21T22:28:48.960Z,7.70
2023-03-21T22:31:16.964Z,8.20
2023-03-21T22:33:44.793Z,7.93
2023-03-21T22:36:12.390Z,8.73
2023-03-21T22:38:41.786Z,7.90
2023-03-21T22:41:09.123Z,8.13
2023-03-21T22:43:36.407Z,8.80
2023-03-21T22:46:04.268Z,8.23
2023-03-21T22:48:32.259Z,8.53
2023-03-21T22:51:00.474Z,9.20
2023-03-21T22:53:28.232Z,7.83
2023-03-21T22:55:56.046Z,9.07
2023-03-21T22:58:26.726Z,11.07
2023-03-21T23:00:54.208Z,8.30
2023-03-21T23:03:21.486Z,8.17
2023-03-21T23:05:50.237Z,8.67
2023-03-21T23:08:17.712Z,8.10
2023-03-21T23:10:46.062Z,8.30
2023-03-21T23:13:13.394Z,9.40
2023-03-21T23:15:41.060Z,9.00
2023-03-21T23:18:08.475Z,8.27
2023-03-21T23:20:36.589Z,8.50
2023-03-21T23:23:04.295Z,8.33
2023-03-21T23:25:33.555Z,8.60
2023-03-21T23:28:02.000Z,8.30
2023-03-21T23:30:29.315Z,8.57
2023-03-21T23:32:56.632Z,7.80
2023-03-21T23:35:24.217Z,9.43
2023-03-21T23:37:52.431Z,7.67
2023-03-21T23:40:20.498Z,8.73
2023-03-21T23:42:47.894Z,8.03
2023-03-21T23:45:15.570Z,8.30
2023-03-21T23:47:42.986Z,8.50
2023-03-21T23:50:11.525Z,8.03
2023-03-21T23:52:41.473Z,8.27
2023-03-21T23:55:09.554Z,9.00
2023-03-21T23:57:38.218Z,8.80
